sensor_id;sensor_type;location;lat;lon;timestamp;temperature;humidity
18091;DHT22;9172;49.948;9.208;2023-09-19T00:02:17;18.00;99.90
18091;DHT22;9172;49.948;9.208;2023-09-19T00:04:46;18.00;99.90
18091;DHT22;9172;49.948;9.208;2023-09-19T00:07:16;18.00;99.90
18091;DHT22;9172;49.948;9.208;2023-09-19T00:09:44;18.00;99.90
18091;DHT22;9172;49.948;9.208;2023-09-19T00:12:14;18.00;99.90
18091;DHT22;9172;49.948;9.208;2023-09-19T00:14:42;18.00;99.90
18091;DHT22;9172;49.948;9.208;2023-09-19T00:17:11;18.00;99.90
18091;DHT22;9172;49.948;9.208;2023-09-19T00:19:39;18.00;99.90
18091;DHT22;9172;49.948;9.208;2023-09-19T00:22:09;18.00;99.90
18091;DHT22;9172;49.948;9.208;2023-09-19T00:24:40;17.90;99.90
18091;DHT22;9172;49.948;9.208;2023-09-19T00:27:08;17.90;99.90
18091;DHT22;9172;49.948;9.208;2023-09-19T00:29:37;17.90;99.90
18091;DHT22;9172;49.948;9.208;2023-09-19T00:32:08;17.80;99.90
18091;DHT22;9172;49.948;9.208;2023-09-19T00:34:36;17.90;99.90
18091;DHT22;9172;49.948;9.208;2023-09-19T00:37:05;17.90;99.90
18091;DHT22;9172;49.948;9.208;2023-09-19T00:39:33;17.90;99.90
18091;DHT22;9172;49.948;9.208;2023-09-19T00:42:02;17.90;99.90
18091;DHT22;9172;49.948;9.208;2023-09-19T00:44:32;17.90;99.90
18091;DHT22;9172;49.948;9.208;2023-09-19T00:47:02;17.90;99.90
18091;DHT22;9172;49.948;9.208;2023-09-19T00:49:32;17.90;99.90
18091;DHT22;9172;49.948;9.208;2023-09-19T00:52:01;17.90;99.90
18091;DHT22;9172;49.948;9.208;2023-09-19T00:54:32;17.90;99.90
18091;DHT22;9172;49.948;9.208;2023-09-19T00:57:01;17.90;99.90
18091;DHT22;9172;49.948;9.208;2023-09-19T00:59:30;17.80;99.90
18091;DHT22;9172;49.948;9.208;2023-09-19T01:01:59;17.80;99.90
18091;DHT22;9172;49.948;9.208;2023-09-19T01:04:28;17.70;99.90
18091;DHT22;9172;49.948;9.208;2023-09-19T01:06:56;17.80;99.90
18091;DHT22;9172;49.948;9.208;2023-09-19T01:09:25;17.80;99.90
18091;DHT22;9172;49.948;9.208;2023-09-19T01:11:57;17.80;99.90
18091;DHT22;9172;49.948;9.208;2023-09-19T01:14:30;17.80;99.90
18091;DHT22;9172;49.948;9.208;2023-09-19T01:17:03;17.80;99.90
18091;DHT22;9172;49.948;9.208;2023-09-19T01:20:00;17.80;99.90
18091;DHT22;9172;49.948;9.208;2023-09-19T01:22:31;17.80;99.90
18091;DHT22;9172;49.948;9.208;2023-09-19T01:28:18;17.80;99.90
18091;DHT22;9172;49.948;9.208;2023-09-19T01:30:47;17.70;99.90
18091;DHT22;9172;49.948;9.208;2023-09-19T01:33:18;17.80;99.90
18091;DHT22;9172;49.948;9.208;2023-09-19T01:35:47;17.80;99.90
18091;DHT22;9172;49.948;9.208;2023-09-19T01:38:17;17.80;99.90
18091;DHT22;9172;49.948;9.208;2023-09-19T01:40:50;17.80;99.90
18091;DHT22;9172;49.948;9.208;2023-09-19T01:43:22;17.80;99.90
18091;DHT22;9172;49.948;9.208;2023-09-19T01:45:55;17.80;99.90
18091;DHT22;9172;49.948;9.208;2023-09-19T01:48:28;17.90;99.90
18091;DHT22;9172;49.948;9.208;2023-09-19T01:50:59;17.90;99.90
18091;DHT22;9172;49.948;9.208;2023-09-19T01:53:33;17.90;99.90
18091;DHT22;9172;49.948;9.208;2023-09-19T01:56:03;17.90;99.90
18091;DHT22;9172;49.948;9.208;2023-09-19T01:58:35;17.90;99.90
18091;DHT22;9172;49.948;9.208;2023-09-19T02:01:05;17.90;99.90
18091;DHT22;9172;49.948;9.208;2023-09-19T02:03:35;17.80;99.90
18091;DHT22;9172;49.948;9.208;2023-09-19T02:06:05;17.80;99.90
18091;DHT22;9172;49.948;9.208;2023-09-19T02:08:35;17.70;99.90
18091;DHT22;9172;49.948;9.208;2023-09-19T02:11:04;17.70;99.90
18091;DHT22;9172;49.948;9.208;2023-09-19T02:16:11;17.70;99.90
18091;DHT22;9172;49.948;9.208;2023-09-19T02:18:40;17.70;99.90
18091;DHT22;9172;49.948;9.208;2023-09-19T02:21:08;17.70;99.90
18091;DHT22;9172;49.948;9.208;2023-09-19T02:23:38;17.70;99.90
18091;DHT22;9172;49.948;9.208;2023-09-19T02:26:08;17.80;99.90
18091;DHT22;9172;49.948;9.208;2023-09-19T02:28:38;17.80;99.90
18091;DHT22;9172;49.948;9.208;2023-09-19T02:31:07;17.80;99.90
18091;DHT22;9172;49.948;9.208;2023-09-19T02:33:35;17.80;99.90
18091;DHT22;9172;49.948;9.208;2023-09-19T02:36:05;17.80;99.90
18091;DHT22;9172;49.948;9.208;2023-09-19T02:38:35;17.70;99.90
18091;DHT22;9172;49.948;9.208;2023-09-19T02:41:05;17.60;99.90
18091;DHT22;9172;49.948;9.208;2023-09-19T02:43:34;17.50;99.90
18091;DHT22;9172;49.948;9.208;2023-09-19T02:46:03;17.60;99.90
18091;DHT22;9172;49.948;9.208;2023-09-19T02:48:32;17.50;99.90
18091;DHT22;9172;49.948;9.208;2023-09-19T02:51:02;17.60;99.90
18091;DHT22;9172;49.948;9.208;2023-09-19T02:53:32;17.50;99.90
18091;DHT22;9172;49.948;9.208;2023-09-19T02:56:02;17.40;99.90
18091;DHT22;9172;49.948;9.208;2023-09-19T02:58:31;17.40;99.90
18091;DHT22;9172;49.948;9.208;2023-09-19T03:01:09;17.40;99.90
18091;DHT22;9172;49.948;9.208;2023-09-19T03:03:38;17.40;99.90
18091;DHT22;9172;49.948;9.208;2023-09-19T03:06:08;17.50;99.90
18091;DHT22;9172;49.948;9.208;2023-09-19T03:08:37;17.40;99.90
18091;DHT22;9172;49.948;9.208;2023-09-19T03:11:07;17.50;99.90
18091;DHT22;9172;49.948;9.208;2023-09-19T03:13:39;17.40;99.90
18091;DHT22;9172;49.948;9.208;2023-09-19T03:16:09;17.40;99.90
18091;DHT22;9172;49.948;9.208;2023-09-19T03:18:38;17.40;99.90
18091;DHT22;9172;49.948;9.208;2023-09-19T03:21:07;17.40;99.90
18091;DHT22;9172;49.948;9.208;2023-09-19T03:23:36;17.40;99.90
18091;DHT22;9172;49.948;9.208;2023-09-19T03:26:06;17.40;99.90
18091;DHT22;9172;49.948;9.208;2023-09-19T03:28:36;17.40;99.90
18091;DHT22;9172;49.948;9.208;2023-09-19T03:31:06;17.40;99.90
18091;DHT22;9172;49.948;9.208;2023-09-19T03:33:35;17.40;99.90
18091;DHT22;9172;49.948;9.208;2023-09-19T03:36:05;17.40;99.90
18091;DHT22;9172;49.948;9.208;2023-09-19T03:38:34;17.30;99.90
18091;DHT22;9172;49.948;9.208;2023-09-19T03:41:04;17.30;99.90
18091;DHT22;9172;49.948;9.208;2023-09-19T03:43:33;17.20;99.90
18091;DHT22;9172;49.948;9.208;2023-09-19T03:46:02;17.20;99.90
18091;DHT22;9172;49.948;9.208;2023-09-19T03:48:32;17.20;99.90
18091;DHT22;9172;49.948;9.208;2023-09-19T03:51:00;17.20;99.90
18091;DHT22;9172;49.948;9.208;2023-09-19T03:53:29;17.00;99.90
18091;DHT22;9172;49.948;9.208;2023-09-19T03:55:58;17.00;99.90
18091;DHT22;9172;49.948;9.208;2023-09-19T03:58:30;17.10;99.90
18091;DHT22;9172;49.948;9.208;2023-09-19T04:01:00;17.00;99.90
18091;DHT22;9172;49.948;9.208;2023-09-19T04:03:29;17.10;99.90
18091;DHT22;9172;49.948;9.208;2023-09-19T04:05:59;17.00;99.90
18091;DHT22;9172;49.948;9.208;2023-09-19T04:08:28;17.10;99.90
18091;DHT22;9172;49.948;9.208;2023-09-19T04:10:57;17.10;99.90
18091;DHT22;9172;49.948;9.208;2023-09-19T04:13:26;17.20;99.90
18091;DHT22;9172;49.948;9.208;2023-09-19T04:15:55;17.10;99.90
18091;DHT22;9172;49.948;9.208;2023-09-19T04:18:24;17.10;99.90
18091;DHT22;9172;49.948;9.208;2023-09-19T04:20:53;17.20;99.90
18091;DHT22;9172;49.948;9.208;2023-09-19T04:23:23;17.20;99.90
18091;DHT22;9172;49.948;9.208;2023-09-19T04:25:52;17.20;99.90
18091;DHT22;9172;49.948;9.208;2023-09-19T04:28:21;17.20;99.90
18091;DHT22;9172;49.948;9.208;2023-09-19T04:30:50;17.20;99.90
18091;DHT22;9172;49.948;9.208;2023-09-19T04:33:19;17.20;99.90
18091;DHT22;9172;49.948;9.208;2023-09-19T04:35:50;17.20;99.90
18091;DHT22;9172;49.948;9.208;2023-09-19T04:38:19;17.20;99.90
18091;DHT22;9172;49.948;9.208;2023-09-19T04:40:48;17.20;99.90
18091;DHT22;9172;49.948;9.208;2023-09-19T04:43:16;17.30;99.90
18091;DHT22;9172;49.948;9.208;2023-09-19T04:45:45;17.10;99.90
18091;DHT22;9172;49.948;9.208;2023-09-19T04:48:14;17.10;99.90
18091;DHT22;9172;49.948;9.208;2023-09-19T04:50:43;17.10;99.90
18091;DHT22;9172;49.948;9.208;2023-09-19T04:53:12;17.10;99.90
18091;DHT22;9172;49.948;9.208;2023-09-19T04:55:40;17.20;99.90
18091;DHT22;9172;49.948;9.208;2023-09-19T04:58:09;17.20;99.90
18091;DHT22;9172;49.948;9.208;2023-09-19T05:00:38;17.10;99.90
18091;DHT22;9172;49.948;9.208;2023-09-19T05:03:06;17.10;99.90
18091;DHT22;9172;49.948;9.208;2023-09-19T05:05:36;16.90;99.90
18091;DHT22;9172;49.948;9.208;2023-09-19T05:08:06;16.90;99.90
18091;DHT22;9172;49.948;9.208;2023-09-19T05:10:36;16.90;99.90
18091;DHT22;9172;49.948;9.208;2023-09-19T05:13:05;16.90;99.90
18091;DHT22;9172;49.948;9.208;2023-09-19T05:15:35;17.00;99.90
18091;DHT22;9172;49.948;9.208;2023-09-19T05:18:04;17.00;99.90
18091;DHT22;9172;49.948;9.208;2023-09-19T05:20:33;17.00;99.90
18091;DHT22;9172;49.948;9.208;2023-09-19T05:23:05;17.00;99.90
18091;DHT22;9172;49.948;9.208;2023-09-19T05:25:36;17.00;99.90
18091;DHT22;9172;49.948;9.208;2023-09-19T05:28:06;17.00;99.90
18091;DHT22;9172;49.948;9.208;2023-09-19T05:30:36;17.00;99.90
18091;DHT22;9172;49.948;9.208;2023-09-19T05:33:06;17.00;99.90
18091;DHT22;9172;49.948;9.208;2023-09-19T05:35:35;16.90;99.90
18091;DHT22;9172;49.948;9.208;2023-09-19T05:38:07;17.00;99.90
18091;DHT22;9172;49.948;9.208;2023-09-19T05:40:36;16.90;99.90
18091;DHT22;9172;49.948;9.208;2023-09-19T05:43:06;16.80;99.90
18091;DHT22;9172;49.948;9.208;2023-09-19T05:45:35;16.70;99.90
18091;DHT22;9172;49.948;9.208;2023-09-19T05:48:12;16.80;99.90
18091;DHT22;9172;49.948;9.208;2023-09-19T05:50:42;16.70;99.90
18091;DHT22;9172;49.948;9.208;2023-09-19T05:53:13;16.70;99.90
18091;DHT22;9172;49.948;9.208;2023-09-19T05:55:42;16.70;99.90
18091;DHT22;9172;49.948;9.208;2023-09-19T05:58:10;16.70;99.90
18091;DHT22;9172;49.948;9.208;2023-09-19T06:00:41;16.60;99.90
18091;DHT22;9172;49.948;9.208;2023-09-19T06:03:11;16.60;99.90
18091;DHT22;9172;49.948;9.208;2023-09-19T06:05:41;16.60;99.90
18091;DHT22;9172;49.948;9.208;2023-09-19T06:08:09;16.60;99.90
18091;DHT22;9172;49.948;9.208;2023-09-19T06:10:38;16.60;99.90
18091;DHT22;9172;49.948;9.208;2023-09-19T06:13:07;16.70;99.90
18091;DHT22;9172;49.948;9.208;2023-09-19T06:15:38;16.70;99.90
18091;DHT22;9172;49.948;9.208;2023-09-19T06:18:11;16.70;99.90
18091;DHT22;9172;49.948;9.208;2023-09-19T06:20:42;16.70;99.90
18091;DHT22;9172;49.948;9.208;2023-09-19T06:23:11;16.60;99.90
18091;DHT22;9172;49.948;9.208;2023-09-19T06:25:40;16.60;99.90
18091;DHT22;9172;49.948;9.208;2023-09-19T06:28:10;16.60;99.90
18091;DHT22;9172;49.948;9.208;2023-09-19T06:30:40;16.60;99.90
18091;DHT22;9172;49.948;9.208;2023-09-19T06:33:09;16.60;99.90
18091;DHT22;9172;49.948;9.208;2023-09-19T06:35:39;16.60;99.90
18091;DHT22;9172;49.948;9.208;2023-09-19T06:38:09;16.70;99.90
18091;DHT22;9172;49.948;9.208;2023-09-19T06:40:40;16.70;99.90
18091;DHT22;9172;49.948;9.208;2023-09-19T06:43:11;16.70;99.90
18091;DHT22;9172;49.948;9.208;2023-09-19T06:45:39;16.70;99.90
18091;DHT22;9172;49.948;9.208;2023-09-19T06:48:08;16.80;99.90
18091;DHT22;9172;49.948;9.208;2023-09-19T06:50:37;16.70;99.90
18091;DHT22;9172;49.948;9.208;2023-09-19T06:53:08;16.80;99.90
18091;DHT22;9172;49.948;9.208;2023-09-19T06:55:37;16.80;99.90
18091;DHT22;9172;49.948;9.208;2023-09-19T06:58:06;16.70;99.90
18091;DHT22;9172;49.948;9.208;2023-09-19T07:00:35;16.60;99.90
18091;DHT22;9172;49.948;9.208;2023-09-19T07:03:06;16.50;99.90
18091;DHT22;9172;49.948;9.208;2023-09-19T07:05:38;16.50;99.90
18091;DHT22;9172;49.948;9.208;2023-09-19T07:08:08;16.50;99.90
18091;DHT22;9172;49.948;9.208;2023-09-19T07:10:39;16.50;99.90
18091;DHT22;9172;49.948;9.208;2023-09-19T07:13:09;16.50;99.90
18091;DHT22;9172;49.948;9.208;2023-09-19T07:15:38;16.50;99.90
18091;DHT22;9172;49.948;9.208;2023-09-19T07:18:09;16.40;99.90
18091;DHT22;9172;49.948;9.208;2023-09-19T07:20:38;16.40;99.90
18091;DHT22;9172;49.948;9.208;2023-09-19T07:23:07;16.40;99.90
18091;DHT22;9172;49.948;9.208;2023-09-19T07:25:36;16.40;99.90
18091;DHT22;9172;49.948;9.208;2023-09-19T07:28:06;16.40;99.90
18091;DHT22;9172;49.948;9.208;2023-09-19T07:30:37;16.50;99.90
18091;DHT22;9172;49.948;9.208;2023-09-19T07:33:06;16.60;99.90
18091;DHT22;9172;49.948;9.208;2023-09-19T07:35:37;16.60;99.90
18091;DHT22;9172;49.948;9.208;2023-09-19T07:38:08;16.70;99.90
18091;DHT22;9172;49.948;9.208;2023-09-19T07:40:37;16.70;99.90
18091;DHT22;9172;49.948;9.208;2023-09-19T07:43:07;16.70;99.90
18091;DHT22;9172;49.948;9.208;2023-09-19T07:45:36;16.70;99.90
18091;DHT22;9172;49.948;9.208;2023-09-19T07:48:05;16.70;99.90
18091;DHT22;9172;49.948;9.208;2023-09-19T07:50:36;16.60;99.90
18091;DHT22;9172;49.948;9.208;2023-09-19T07:53:04;16.60;99.90
18091;DHT22;9172;49.948;9.208;2023-09-19T07:55:33;16.60;99.90
18091;DHT22;9172;49.948;9.208;2023-09-19T07:58:01;16.70;99.90
18091;DHT22;9172;49.948;9.208;2023-09-19T08:00:32;16.70;99.90
18091;DHT22;9172;49.948;9.208;2023-09-19T08:03:02;16.80;99.90
18091;DHT22;9172;49.948;9.208;2023-09-19T08:05:31;16.80;99.90
18091;DHT22;9172;49.948;9.208;2023-09-19T08:08:00;16.80;99.90
18091;DHT22;9172;49.948;9.208;2023-09-19T08:10:29;16.80;99.90
18091;DHT22;9172;49.948;9.208;2023-09-19T08:12:59;16.80;99.90
18091;DHT22;9172;49.948;9.208;2023-09-19T08:15:29;16.70;99.90
18091;DHT22;9172;49.948;9.208;2023-09-19T08:17:59;16.70;99.90
18091;DHT22;9172;49.948;9.208;2023-09-19T08:20:29;16.70;99.90
18091;DHT22;9172;49.948;9.208;2023-09-19T08:22:58;16.70;99.90
18091;DHT22;9172;49.948;9.208;2023-09-19T08:25:27;16.70;99.90
18091;DHT22;9172;49.948;9.208;2023-09-19T08:27:56;16.70;99.90
18091;DHT22;9172;49.948;9.208;2023-09-19T08:30:27;16.70;99.90
18091;DHT22;9172;49.948;9.208;2023-09-19T08:32:58;16.70;99.90
18091;DHT22;9172;49.948;9.208;2023-09-19T08:35:27;16.70;99.90
18091;DHT22;9172;49.948;9.208;2023-09-19T08:37:56;16.80;99.90
18091;DHT22;9172;49.948;9.208;2023-09-19T08:40:25;16.90;99.90
18091;DHT22;9172;49.948;9.208;2023-09-19T08:45:34;17.00;99.90
18091;DHT22;9172;49.948;9.208;2023-09-19T08:48:17;17.00;99.90
18091;DHT22;9172;49.948;9.208;2023-09-19T08:50:51;17.10;99.90
18091;DHT22;9172;49.948;9.208;2023-09-19T08:53:26;17.10;99.90
18091;DHT22;9172;49.948;9.208;2023-09-19T08:55:56;17.10;99.90
18091;DHT22;9172;49.948;9.208;2023-09-19T08:58:37;17.00;99.90
18091;DHT22;9172;49.948;9.208;2023-09-19T09:00:58;17.10;99.90
18091;DHT22;9172;49.948;9.208;2023-09-19T09:06:09;17.20;99.90
18091;DHT22;9172;49.948;9.208;2023-09-19T09:08:40;17.20;99.90
18091;DHT22;9172;49.948;9.208;2023-09-19T09:11:09;17.10;99.90
18091;DHT22;9172;49.948;9.208;2023-09-19T09:13:38;17.20;99.90
18091;DHT22;9172;49.948;9.208;2023-09-19T09:16:08;17.20;99.90
18091;DHT22;9172;49.948;9.208;2023-09-19T09:18:37;17.20;99.90
18091;DHT22;9172;49.948;9.208;2023-09-19T09:21:06;17.30;99.90
18091;DHT22;9172;49.948;9.208;2023-09-19T09:23:35;17.20;99.90
18091;DHT22;9172;49.948;9.208;2023-09-19T09:26:04;17.30;99.90
18091;DHT22;9172;49.948;9.208;2023-09-19T09:28:34;17.30;99.90
18091;DHT22;9172;49.948;9.208;2023-09-19T09:31:05;17.40;99.90
18091;DHT22;9172;49.948;9.208;2023-09-19T09:33:36;17.30;99.90
18091;DHT22;9172;49.948;9.208;2023-09-19T09:36:07;17.40;99.90
18091;DHT22;9172;49.948;9.208;2023-09-19T09:38:45;17.50;99.90
18091;DHT22;9172;49.948;9.208;2023-09-19T09:41:17;17.60;99.90
18091;DHT22;9172;49.948;9.208;2023-09-19T09:43:47;17.50;99.90
18091;DHT22;9172;49.948;9.208;2023-09-19T09:46:17;17.40;99.90
18091;DHT22;9172;49.948;9.208;2023-09-19T09:49:04;17.40;99.90
18091;DHT22;9172;49.948;9.208;2023-09-19T09:51:51;17.60;99.90
18091;DHT22;9172;49.948;9.208;2023-09-19T09:57:06;17.90;99.90
18091;DHT22;9172;49.948;9.208;2023-09-19T09:59:46;18.00;99.90
18091;DHT22;9172;49.948;9.208;2023-09-19T10:02:15;18.10;99.90
18091;DHT22;9172;49.948;9.208;2023-09-19T10:04:48;18.10;99.90
18091;DHT22;9172;49.948;9.208;2023-09-19T10:07:29;18.10;99.90
18091;DHT22;9172;49.948;9.208;2023-09-19T10:10:02;18.00;99.90
18091;DHT22;9172;49.948;9.208;2023-09-19T10:13:00;18.00;99.90
18091;DHT22;9172;49.948;9.208;2023-09-19T10:18:10;18.10;99.90
18091;DHT22;9172;49.948;9.208;2023-09-19T10:20:42;18.20;99.90
18091;DHT22;9172;49.948;9.208;2023-09-19T10:23:13;18.20;99.90
18091;DHT22;9172;49.948;9.208;2023-09-19T10:25:43;18.10;99.90
18091;DHT22;9172;49.948;9.208;2023-09-19T10:28:16;18.20;99.90
18091;DHT22;9172;49.948;9.208;2023-09-19T10:30:48;18.20;99.90
18091;DHT22;9172;49.948;9.208;2023-09-19T10:33:18;18.40;99.90
18091;DHT22;9172;49.948;9.208;2023-09-19T10:35:49;18.40;99.90
18091;DHT22;9172;49.948;9.208;2023-09-19T10:38:19;18.30;99.90
18091;DHT22;9172;49.948;9.208;2023-09-19T10:40:51;18.30;99.90
18091;DHT22;9172;49.948;9.208;2023-09-19T10:43:21;18.30;99.90
18091;DHT22;9172;49.948;9.208;2023-09-19T10:45:51;18.30;99.90
18091;DHT22;9172;49.948;9.208;2023-09-19T10:48:21;18.40;99.90
18091;DHT22;9172;49.948;9.208;2023-09-19T10:50:56;18.50;99.90
18091;DHT22;9172;49.948;9.208;2023-09-19T10:53:26;18.50;99.90
18091;DHT22;9172;49.948;9.208;2023-09-19T10:55:59;18.60;99.90
18091;DHT22;9172;49.948;9.208;2023-09-19T10:58:29;18.60;99.90
18091;DHT22;9172;49.948;9.208;2023-09-19T11:01:00;18.70;99.90
18091;DHT22;9172;49.948;9.208;2023-09-19T11:03:31;18.60;99.90
18091;DHT22;9172;49.948;9.208;2023-09-19T11:06:05;18.50;99.90
18091;DHT22;9172;49.948;9.208;2023-09-19T11:08:58;18.40;99.90
18091;DHT22;9172;49.948;9.208;2023-09-19T11:11:41;18.20;99.90
18091;DHT22;9172;49.948;9.208;2023-09-19T11:14:29;18.20;99.90
18091;DHT22;9172;49.948;9.208;2023-09-19T11:20:24;18.30;99.90
18091;DHT22;9172;49.948;9.208;2023-09-19T11:23:19;18.40;99.90
18091;DHT22;9172;49.948;9.208;2023-09-19T11:25:53;18.50;99.90
18091;DHT22;9172;49.948;9.208;2023-09-19T11:28:35;18.60;99.90
18091;DHT22;9172;49.948;9.208;2023-09-19T11:34:42;18.80;99.90
18091;DHT22;9172;49.948;9.208;2023-09-19T11:40:46;18.90;99.90
18091;DHT22;9172;49.948;9.208;2023-09-19T11:43:31;19.00;99.90
18091;DHT22;9172;49.948;9.208;2023-09-19T11:46:05;19.10;99.90
18091;DHT22;9172;49.948;9.208;2023-09-19T11:48:35;19.00;99.90
18091;DHT22;9172;49.948;9.208;2023-09-19T11:51:13;19.10;99.90
18091;DHT22;9172;49.948;9.208;2023-09-19T11:53:50;19.10;99.90
18091;DHT22;9172;49.948;9.208;2023-09-19T11:56:20;19.20;99.90
18091;DHT22;9172;49.948;9.208;2023-09-19T11:58:52;19.10;99.90
18091;DHT22;9172;49.948;9.208;2023-09-19T12:01:29;19.10;99.90
18091;DHT22;9172;49.948;9.208;2023-09-19T12:03:58;19.10;99.90
18091;DHT22;9172;49.948;9.208;2023-09-19T12:06:28;19.20;99.90
18091;DHT22;9172;49.948;9.208;2023-09-19T12:08:57;19.20;99.90
18091;DHT22;9172;49.948;9.208;2023-09-19T12:11:30;19.30;99.90
18091;DHT22;9172;49.948;9.208;2023-09-19T12:14:01;19.40;99.90
18091;DHT22;9172;49.948;9.208;2023-09-19T12:16:29;19.40;99.90
18091;DHT22;9172;49.948;9.208;2023-09-19T12:19:21;19.30;99.90
18091;DHT22;9172;49.948;9.208;2023-09-19T12:21:58;19.40;99.90
18091;DHT22;9172;49.948;9.208;2023-09-19T12:24:28;19.30;99.90
18091;DHT22;9172;49.948;9.208;2023-09-19T12:27:01;19.40;99.90
18091;DHT22;9172;49.948;9.208;2023-09-19T12:29:42;19.30;99.90
18091;DHT22;9172;49.948;9.208;2023-09-19T12:32:11;19.30;99.90
18091;DHT22;9172;49.948;9.208;2023-09-19T12:34:41;19.30;99.90
18091;DHT22;9172;49.948;9.208;2023-09-19T12:37:14;19.30;99.90
18091;DHT22;9172;49.948;9.208;2023-09-19T12:39:45;19.40;99.90
18091;DHT22;9172;49.948;9.208;2023-09-19T12:42:17;19.40;99.90
18091;DHT22;9172;49.948;9.208;2023-09-19T12:44:48;19.40;99.90
18091;DHT22;9172;49.948;9.208;2023-09-19T12:47:19;19.50;99.90
18091;DHT22;9172;49.948;9.208;2023-09-19T12:50:10;19.50;99.90
18091;DHT22;9172;49.948;9.208;2023-09-19T12:52:45;19.40;99.90
18091;DHT22;9172;49.948;9.208;2023-09-19T12:55:23;19.50;99.90
18091;DHT22;9172;49.948;9.208;2023-09-19T12:58:00;19.60;99.90
18091;DHT22;9172;49.948;9.208;2023-09-19T13:00:37;19.70;99.90
18091;DHT22;9172;49.948;9.208;2023-09-19T13:03:17;19.60;99.90
18091;DHT22;9172;49.948;9.208;2023-09-19T13:05:52;19.60;99.90
18091;DHT22;9172;49.948;9.208;2023-09-19T13:08:25;19.60;99.90
18091;DHT22;9172;49.948;9.208;2023-09-19T13:11:07;19.70;99.90
18091;DHT22;9172;49.948;9.208;2023-09-19T13:13:39;19.70;99.90
18091;DHT22;9172;49.948;9.208;2023-09-19T13:16:08;19.90;99.90
18091;DHT22;9172;49.948;9.208;2023-09-19T13:18:46;20.00;99.90
18091;DHT22;9172;49.948;9.208;2023-09-19T13:21:26;20.00;99.90
18091;DHT22;9172;49.948;9.208;2023-09-19T13:23:52;20.10;99.90
18091;DHT22;9172;49.948;9.208;2023-09-19T13:26:21;20.10;99.90
18091;DHT22;9172;49.948;9.208;2023-09-19T13:28:50;20.10;99.90
18091;DHT22;9172;49.948;9.208;2023-09-19T13:31:19;20.20;99.90
18091;DHT22;9172;49.948;9.208;2023-09-19T13:33:48;20.30;99.90
18091;DHT22;9172;49.948;9.208;2023-09-19T13:36:17;20.30;99.90
18091;DHT22;9172;49.948;9.208;2023-09-19T13:38:46;20.20;99.90
18091;DHT22;9172;49.948;9.208;2023-09-19T13:41:16;20.20;99.90
18091;DHT22;9172;49.948;9.208;2023-09-19T13:43:45;20.10;99.90
18091;DHT22;9172;49.948;9.208;2023-09-19T13:46:15;20.10;99.90
18091;DHT22;9172;49.948;9.208;2023-09-19T13:48:45;20.20;99.90
18091;DHT22;9172;49.948;9.208;2023-09-19T13:51:13;20.10;99.90
18091;DHT22;9172;49.948;9.208;2023-09-19T13:53:42;20.20;99.90
18091;DHT22;9172;49.948;9.208;2023-09-19T13:56:11;20.20;99.90
18091;DHT22;9172;49.948;9.208;2023-09-19T13:58:40;20.20;99.90
18091;DHT22;9172;49.948;9.208;2023-09-19T14:01:09;20.20;99.90
18091;DHT22;9172;49.948;9.208;2023-09-19T14:03:40;20.30;99.90
18091;DHT22;9172;49.948;9.208;2023-09-19T14:06:11;20.30;99.90
18091;DHT22;9172;49.948;9.208;2023-09-19T14:08:39;20.30;99.90
18091;DHT22;9172;49.948;9.208;2023-09-19T14:11:08;20.30;99.90
18091;DHT22;9172;49.948;9.208;2023-09-19T14:13:37;20.20;99.90
18091;DHT22;9172;49.948;9.208;2023-09-19T14:16:06;20.20;99.90
18091;DHT22;9172;49.948;9.208;2023-09-19T14:18:36;20.20;99.90
18091;DHT22;9172;49.948;9.208;2023-09-19T14:21:05;20.30;99.90
18091;DHT22;9172;49.948;9.208;2023-09-19T14:23:36;20.30;99.90
18091;DHT22;9172;49.948;9.208;2023-09-19T14:26:04;20.30;99.90
18091;DHT22;9172;49.948;9.208;2023-09-19T14:28:33;20.20;99.90
18091;DHT22;9172;49.948;9.208;2023-09-19T14:31:07;20.20;99.90
18091;DHT22;9172;49.948;9.208;2023-09-19T14:33:36;20.20;99.90
18091;DHT22;9172;49.948;9.208;2023-09-19T14:36:07;20.10;99.90
18091;DHT22;9172;49.948;9.208;2023-09-19T14:38:37;20.10;99.90
18091;DHT22;9172;49.948;9.208;2023-09-19T14:41:06;20.20;99.90
18091;DHT22;9172;49.948;9.208;2023-09-19T14:43:34;20.20;99.90
18091;DHT22;9172;49.948;9.208;2023-09-19T14:46:06;20.30;99.90
18091;DHT22;9172;49.948;9.208;2023-09-19T14:48:37;20.30;99.90
18091;DHT22;9172;49.948;9.208;2023-09-19T14:51:06;20.30;99.90
18091;DHT22;9172;49.948;9.208;2023-09-19T14:53:36;20.30;99.90
18091;DHT22;9172;49.948;9.208;2023-09-19T14:56:06;20.40;99.90
18091;DHT22;9172;49.948;9.208;2023-09-19T14:58:35;20.50;99.90
18091;DHT22;9172;49.948;9.208;2023-09-19T15:01:07;20.40;99.90
18091;DHT22;9172;49.948;9.208;2023-09-19T15:03:38;20.40;99.90
18091;DHT22;9172;49.948;9.208;2023-09-19T15:06:09;20.50;99.90
18091;DHT22;9172;49.948;9.208;2023-09-19T15:08:40;20.40;99.90
18091;DHT22;9172;49.948;9.208;2023-09-19T15:11:11;20.50;99.90
18091;DHT22;9172;49.948;9.208;2023-09-19T15:13:40;20.40;99.90
18091;DHT22;9172;49.948;9.208;2023-09-19T15:16:10;20.40;99.90
18091;DHT22;9172;49.948;9.208;2023-09-19T15:18:40;20.30;99.90
18091;DHT22;9172;49.948;9.208;2023-09-19T15:21:11;20.30;99.90
18091;DHT22;9172;49.948;9.208;2023-09-19T15:23:40;20.20;99.90
18091;DHT22;9172;49.948;9.208;2023-09-19T15:26:11;20.20;99.90
18091;DHT22;9172;49.948;9.208;2023-09-19T15:28:40;20.10;99.90
18091;DHT22;9172;49.948;9.208;2023-09-19T15:31:10;20.10;99.90
18091;DHT22;9172;49.948;9.208;2023-09-19T15:33:40;20.10;99.90
18091;DHT22;9172;49.948;9.208;2023-09-19T15:36:10;20.00;99.90
18091;DHT22;9172;49.948;9.208;2023-09-19T15:38:59;20.00;99.90
18091;DHT22;9172;49.948;9.208;2023-09-19T15:41:29;20.00;99.90
18091;DHT22;9172;49.948;9.208;2023-09-19T15:43:59;20.00;99.90
18091;DHT22;9172;49.948;9.208;2023-09-19T15:46:29;20.00;99.90
18091;DHT22;9172;49.948;9.208;2023-09-19T15:48:58;20.00;99.90
18091;DHT22;9172;49.948;9.208;2023-09-19T15:51:27;19.90;99.90
18091;DHT22;9172;49.948;9.208;2023-09-19T15:53:57;19.90;99.90
18091;DHT22;9172;49.948;9.208;2023-09-19T15:56:27;19.90;99.90
18091;DHT22;9172;49.948;9.208;2023-09-19T15:58:56;19.90;99.90
18091;DHT22;9172;49.948;9.208;2023-09-19T16:01:25;19.90;99.90
18091;DHT22;9172;49.948;9.208;2023-09-19T16:03:55;19.90;99.90
18091;DHT22;9172;49.948;9.208;2023-09-19T16:06:25;19.90;99.90
18091;DHT22;9172;49.948;9.208;2023-09-19T16:08:55;19.90;99.90
18091;DHT22;9172;49.948;9.208;2023-09-19T16:11:26;19.90;99.90
18091;DHT22;9172;49.948;9.208;2023-09-19T16:13:56;19.90;99.90
18091;DHT22;9172;49.948;9.208;2023-09-19T16:16:26;19.90;99.90
18091;DHT22;9172;49.948;9.208;2023-09-19T16:18:58;19.90;99.90
18091;DHT22;9172;49.948;9.208;2023-09-19T16:21:28;19.80;99.90
18091;DHT22;9172;49.948;9.208;2023-09-19T16:23:59;19.80;99.90
18091;DHT22;9172;49.948;9.208;2023-09-19T16:26:28;19.80;99.90
18091;DHT22;9172;49.948;9.208;2023-09-19T16:28:58;19.80;99.90
18091;DHT22;9172;49.948;9.208;2023-09-19T16:31:28;19.70;99.90
18091;DHT22;9172;49.948;9.208;2023-09-19T16:33:58;19.80;99.90
18091;DHT22;9172;49.948;9.208;2023-09-19T16:36:27;19.80;99.90